sensor_id;sensor_type;location;lat;lon;timestamp;temperature;humidity
939;DHT22;456;53.584;9.968;2024-01-25T00:01:38;16.80;24.50
939;DHT22;456;53.584;9.968;2024-01-25T00:04:04;16.80;24.50
939;DHT22;456;53.584;9.968;2024-01-25T00:06:30;16.80;24.60
939;DHT22;456;53.584;9.968;2024-01-25T00:08:55;16.80;24.50
939;DHT22;456;53.584;9.968;2024-01-25T00:11:21;16.80;24.60
939;DHT22;456;53.584;9.968;2024-01-25T00:13:46;16.80;24.50
939;DHT22;456;53.584;9.968;2024-01-25T00:16:12;16.80;24.60
939;DHT22;456;53.584;9.968;2024-01-25T00:18:37;16.80;24.60
939;DHT22;456;53.584;9.968;2024-01-25T00:21:03;16.80;24.60
939;DHT22;456;53.584;9.968;2024-01-25T00:23:28;16.80;24.60
939;DHT22;456;53.584;9.968;2024-01-25T00:25:54;16.70;24.50
939;DHT22;456;53.584;9.968;2024-01-25T00:28:24;16.80;24.60
939;DHT22;456;53.584;9.968;2024-01-25T00:30:49;16.80;24.60
939;DHT22;456;53.584;9.968;2024-01-25T00:33:15;16.70;24.50
939;DHT22;456;53.584;9.968;2024-01-25T00:35:40;16.70;24.50
939;DHT22;456;53.584;9.968;2024-01-25T00:38:06;16.80;24.60
939;DHT22;456;53.584;9.968;2024-01-25T00:40:32;16.80;24.60
939;DHT22;456;53.584;9.968;2024-01-25T00:42:58;16.70;24.50
939;DHT22;456;53.584;9.968;2024-01-25T00:45:24;16.80;24.50
939;DHT22;456;53.584;9.968;2024-01-25T00:47:50;16.80;24.50
939;DHT22;456;53.584;9.968;2024-01-25T00:50:16;16.70;24.50
939;DHT22;456;53.584;9.968;2024-01-25T00:52:43;16.80;24.50
939;DHT22;456;53.584;9.968;2024-01-25T00:55:10;16.70;24.50
939;DHT22;456;53.584;9.968;2024-01-25T00:57:36;16.70;24.50
939;DHT22;456;53.584;9.968;2024-01-25T01:00:02;16.70;24.50
939;DHT22;456;53.584;9.968;2024-01-25T01:02:30;16.70;24.50
939;DHT22;456;53.584;9.968;2024-01-25T01:04:59;16.70;24.60
939;DHT22;456;53.584;9.968;2024-01-25T01:07:25;16.70;24.60
939;DHT22;456;53.584;9.968;2024-01-25T01:09:51;16.70;24.60
939;DHT22;456;53.584;9.968;2024-01-25T01:12:16;16.70;24.60
939;DHT22;456;53.584;9.968;2024-01-25T01:14:42;16.70;24.60
939;DHT22;456;53.584;9.968;2024-01-25T01:17:08;16.70;24.60
939;DHT22;456;53.584;9.968;2024-01-25T01:19:34;16.70;24.60
939;DHT22;456;53.584;9.968;2024-01-25T01:21:59;16.70;24.60
939;DHT22;456;53.584;9.968;2024-01-25T01:24:25;16.70;24.60
939;DHT22;456;53.584;9.968;2024-01-25T01:26:50;16.70;24.60
939;DHT22;456;53.584;9.968;2024-01-25T01:29:16;16.70;24.70
939;DHT22;456;53.584;9.968;2024-01-25T01:31:42;16.70;24.70
939;DHT22;456;53.584;9.968;2024-01-25T01:34:07;16.70;24.70
939;DHT22;456;53.584;9.968;2024-01-25T01:36:33;16.70;24.70
939;DHT22;456;53.584;9.968;2024-01-25T01:38:58;16.70;24.70
939;DHT22;456;53.584;9.968;2024-01-25T01:41:25;16.70;24.70
939;DHT22;456;53.584;9.968;2024-01-25T01:43:54;16.70;24.70
939;DHT22;456;53.584;9.968;2024-01-25T01:48:54;16.70;24.60
939;DHT22;456;53.584;9.968;2024-01-25T01:51:20;16.70;24.60
939;DHT22;456;53.584;9.968;2024-01-25T01:53:46;16.70;24.60
939;DHT22;456;53.584;9.968;2024-01-25T01:56:12;16.70;24.60
939;DHT22;456;53.584;9.968;2024-01-25T01:58:38;16.70;24.50
939;DHT22;456;53.584;9.968;2024-01-25T02:01:04;16.70;24.60
939;DHT22;456;53.584;9.968;2024-01-25T02:03:30;16.70;24.50
939;DHT22;456;53.584;9.968;2024-01-25T02:05:55;16.70;24.60
939;DHT22;456;53.584;9.968;2024-01-25T02:08:24;16.70;24.60
939;DHT22;456;53.584;9.968;2024-01-25T02:10:51;16.60;24.50
939;DHT22;456;53.584;9.968;2024-01-25T02:13:16;16.70;24.60
939;DHT22;456;53.584;9.968;2024-01-25T02:15:43;16.70;24.50
939;DHT22;456;53.584;9.968;2024-01-25T02:18:09;16.60;24.50
939;DHT22;456;53.584;9.968;2024-01-25T02:20:35;16.70;24.50
939;DHT22;456;53.584;9.968;2024-01-25T02:23:00;16.70;24.60
939;DHT22;456;53.584;9.968;2024-01-25T02:25:26;16.70;24.50
939;DHT22;456;53.584;9.968;2024-01-25T02:27:53;16.60;24.40
939;DHT22;456;53.584;9.968;2024-01-25T02:30:18;16.70;24.50
939;DHT22;456;53.584;9.968;2024-01-25T02:32:44;16.60;24.50
939;DHT22;456;53.584;9.968;2024-01-25T02:35:09;16.70;24.50
939;DHT22;456;53.584;9.968;2024-01-25T02:37:35;16.70;24.50
939;DHT22;456;53.584;9.968;2024-01-25T02:40:01;16.70;24.50
939;DHT22;456;53.584;9.968;2024-01-25T02:42:26;16.60;24.40
939;DHT22;456;53.584;9.968;2024-01-25T02:44:52;16.60;24.40
939;DHT22;456;53.584;9.968;2024-01-25T02:47:17;16.70;24.50
939;DHT22;456;53.584;9.968;2024-01-25T02:49:44;16.60;24.40
939;DHT22;456;53.584;9.968;2024-01-25T02:52:09;16.60;24.40
939;DHT22;456;53.584;9.968;2024-01-25T02:54:35;16.60;24.40
939;DHT22;456;53.584;9.968;2024-01-25T02:57:02;16.60;24.50
939;DHT22;456;53.584;9.968;2024-01-25T02:59:28;16.60;24.40
939;DHT22;456;53.584;9.968;2024-01-25T03:01:54;16.60;24.40
939;DHT22;456;53.584;9.968;2024-01-25T03:04:20;16.60;24.40
939;DHT22;456;53.584;9.968;2024-01-25T03:06:45;16.60;24.40
939;DHT22;456;53.584;9.968;2024-01-25T03:09:11;16.60;24.50
939;DHT22;456;53.584;9.968;2024-01-25T03:11:36;16.60;24.40
939;DHT22;456;53.584;9.968;2024-01-25T03:14:02;16.60;24.40
939;DHT22;456;53.584;9.968;2024-01-25T03:16:27;16.60;24.50
939;DHT22;456;53.584;9.968;2024-01-25T03:18:53;16.60;24.50
939;DHT22;456;53.584;9.968;2024-01-25T03:21:19;16.60;24.50
939;DHT22;456;53.584;9.968;2024-01-25T03:23:44;16.60;24.40
939;DHT22;456;53.584;9.968;2024-01-25T03:26:10;16.60;24.50
939;DHT22;456;53.584;9.968;2024-01-25T03:28:35;16.60;24.50
939;DHT22;456;53.584;9.968;2024-01-25T03:31:02;16.60;24.50
939;DHT22;456;53.584;9.968;2024-01-25T03:33:28;16.60;24.50
939;DHT22;456;53.584;9.968;2024-01-25T03:35:54;16.60;24.50
939;DHT22;456;53.584;9.968;2024-01-25T03:38:20;16.60;24.50
939;DHT22;456;53.584;9.968;2024-01-25T03:40:46;16.60;24.50
939;DHT22;456;53.584;9.968;2024-01-25T03:43:12;16.60;24.50
939;DHT22;456;53.584;9.968;2024-01-25T03:45:37;16.60;24.50
939;DHT22;456;53.584;9.968;2024-01-25T03:48:03;16.60;24.50
939;DHT22;456;53.584;9.968;2024-01-25T03:50:28;16.60;24.50
939;DHT22;456;53.584;9.968;2024-01-25T03:52:54;16.60;24.50
939;DHT22;456;53.584;9.968;2024-01-25T03:55:20;16.60;24.50
939;DHT22;456;53.584;9.968;2024-01-25T03:57:45;16.60;24.50
939;DHT22;456;53.584;9.968;2024-01-25T04:00:11;16.60;24.50
939;DHT22;456;53.584;9.968;2024-01-25T04:02:37;16.60;24.50
939;DHT22;456;53.584;9.968;2024-01-25T04:05:04;16.60;24.50
939;DHT22;456;53.584;9.968;2024-01-25T04:07:29;16.60;24.50
939;DHT22;456;53.584;9.968;2024-01-25T04:09:55;16.60;24.50
939;DHT22;456;53.584;9.968;2024-01-25T04:12:20;16.60;24.50
939;DHT22;456;53.584;9.968;2024-01-25T04:14:46;16.60;24.60
939;DHT22;456;53.584;9.968;2024-01-25T04:17:12;16.60;24.50
939;DHT22;456;53.584;9.968;2024-01-25T04:19:37;16.60;24.60
939;DHT22;456;53.584;9.968;2024-01-25T04:22:03;16.60;24.60
939;DHT22;456;53.584;9.968;2024-01-25T04:24:29;16.60;24.60
939;DHT22;456;53.584;9.968;2024-01-25T04:26:54;16.60;24.60
939;DHT22;456;53.584;9.968;2024-01-25T04:29:20;16.50;24.50
939;DHT22;456;53.584;9.968;2024-01-25T04:31:46;16.60;24.60
939;DHT22;456;53.584;9.968;2024-01-25T04:34:13;16.60;24.60
939;DHT22;456;53.584;9.968;2024-01-25T04:36:39;16.60;24.60
939;DHT22;456;53.584;9.968;2024-01-25T04:39:05;16.60;24.60
939;DHT22;456;53.584;9.968;2024-01-25T04:41:30;16.60;24.70
939;DHT22;456;53.584;9.968;2024-01-25T04:43:56;16.60;24.70
939;DHT22;456;53.584;9.968;2024-01-25T04:46:22;16.60;24.70
939;DHT22;456;53.584;9.968;2024-01-25T04:48:47;16.60;24.70
939;DHT22;456;53.584;9.968;2024-01-25T04:51:17;16.60;24.70
939;DHT22;456;53.584;9.968;2024-01-25T04:53:43;16.60;24.50
939;DHT22;456;53.584;9.968;2024-01-25T04:56:09;16.60;24.30
939;DHT22;456;53.584;9.968;2024-01-25T04:58:35;16.60;24.20
939;DHT22;456;53.584;9.968;2024-01-25T05:01:00;16.70;24.20
939;DHT22;456;53.584;9.968;2024-01-25T05:03:26;16.80;24.20
939;DHT22;456;53.584;9.968;2024-01-25T05:05:52;16.80;24.20
939;DHT22;456;53.584;9.968;2024-01-25T05:08:17;16.90;24.30
939;DHT22;456;53.584;9.968;2024-01-25T05:10:43;16.90;24.10
939;DHT22;456;53.584;9.968;2024-01-25T05:13:09;17.00;24.30
939;DHT22;456;53.584;9.968;2024-01-25T05:15:34;17.00;24.20
939;DHT22;456;53.584;9.968;2024-01-25T05:18:01;17.00;24.20
939;DHT22;456;53.584;9.968;2024-01-25T05:20:28;17.00;24.20
939;DHT22;456;53.584;9.968;2024-01-25T05:23:01;17.10;24.20
939;DHT22;456;53.584;9.968;2024-01-25T05:25:28;17.10;24.20
939;DHT22;456;53.584;9.968;2024-01-25T05:27:55;17.20;24.30
939;DHT22;456;53.584;9.968;2024-01-25T05:30:21;17.20;24.20
939;DHT22;456;53.584;9.968;2024-01-25T05:32:47;17.20;24.20
939;DHT22;456;53.584;9.968;2024-01-25T05:35:14;17.20;24.20
939;DHT22;456;53.584;9.968;2024-01-25T05:37:39;17.20;24.20
939;DHT22;456;53.584;9.968;2024-01-25T05:40:05;17.20;24.20
939;DHT22;456;53.584;9.968;2024-01-25T05:42:31;17.20;24.20
939;DHT22;456;53.584;9.968;2024-01-25T05:44:57;17.20;24.30
939;DHT22;456;53.584;9.968;2024-01-25T05:47:23;17.20;24.40
939;DHT22;456;53.584;9.968;2024-01-25T05:49:49;17.30;24.50
939;DHT22;456;53.584;9.968;2024-01-25T05:52:14;17.30;24.40
939;DHT22;456;53.584;9.968;2024-01-25T05:54:40;17.30;24.40
939;DHT22;456;53.584;9.968;2024-01-25T05:57:05;17.30;24.30
939;DHT22;456;53.584;9.968;2024-01-25T05:59:31;17.30;24.40
939;DHT22;456;53.584;9.968;2024-01-25T06:01:57;17.30;24.30
939;DHT22;456;53.584;9.968;2024-01-25T06:04:22;17.30;24.30
939;DHT22;456;53.584;9.968;2024-01-25T06:06:48;17.30;24.30
939;DHT22;456;53.584;9.968;2024-01-25T06:09:13;17.40;24.40
939;DHT22;456;53.584;9.968;2024-01-25T06:11:42;17.40;24.40
939;DHT22;456;53.584;9.968;2024-01-25T06:14:08;17.40;24.40
939;DHT22;456;53.584;9.968;2024-01-25T06:16:34;17.40;24.40
939;DHT22;456;53.584;9.968;2024-01-25T06:18:59;17.40;24.40
939;DHT22;456;53.584;9.968;2024-01-25T06:21:26;17.40;24.40
939;DHT22;456;53.584;9.968;2024-01-25T06:23:52;17.40;24.40
939;DHT22;456;53.584;9.968;2024-01-25T06:26:17;17.40;24.40
939;DHT22;456;53.584;9.968;2024-01-25T06:28:43;17.40;24.40
939;DHT22;456;53.584;9.968;2024-01-25T06:31:08;17.40;24.30
939;DHT22;456;53.584;9.968;2024-01-25T06:33:34;17.40;24.30
939;DHT22;456;53.584;9.968;2024-01-25T06:36:00;17.40;24.30
939;DHT22;456;53.584;9.968;2024-01-25T06:38:25;17.40;24.30
939;DHT22;456;53.584;9.968;2024-01-25T06:40:51;17.40;24.30
939;DHT22;456;53.584;9.968;2024-01-25T06:43:16;17.40;24.30
939;DHT22;456;53.584;9.968;2024-01-25T06:45:42;17.40;24.40
939;DHT22;456;53.584;9.968;2024-01-25T06:48:08;17.40;24.30
939;DHT22;456;53.584;9.968;2024-01-25T06:50:36;17.40;24.40
939;DHT22;456;53.584;9.968;2024-01-25T06:53:03;17.40;24.40
939;DHT22;456;53.584;9.968;2024-01-25T06:55:29;17.30;24.30
939;DHT22;456;53.584;9.968;2024-01-25T06:57:54;17.30;24.30
939;DHT22;456;53.584;9.968;2024-01-25T07:00:20;17.30;24.30
939;DHT22;456;53.584;9.968;2024-01-25T07:02:46;17.30;24.30
939;DHT22;456;53.584;9.968;2024-01-25T07:05:12;17.30;24.20
939;DHT22;456;53.584;9.968;2024-01-25T07:07:38;17.20;24.20
939;DHT22;456;53.584;9.968;2024-01-25T07:10:07;17.20;24.30
939;DHT22;456;53.584;9.968;2024-01-25T07:12:33;17.20;24.20
939;DHT22;456;53.584;9.968;2024-01-25T07:14:59;17.20;24.30
939;DHT22;456;53.584;9.968;2024-01-25T07:17:24;17.20;24.30
939;DHT22;456;53.584;9.968;2024-01-25T07:19:50;17.20;24.30
939;DHT22;456;53.584;9.968;2024-01-25T07:22:15;17.10;24.20
939;DHT22;456;53.584;9.968;2024-01-25T07:24:44;17.10;24.20
939;DHT22;456;53.584;9.968;2024-01-25T07:27:09;17.10;24.20
939;DHT22;456;53.584;9.968;2024-01-25T07:29:36;17.10;24.30
939;DHT22;456;53.584;9.968;2024-01-25T07:32:02;17.10;24.30
939;DHT22;456;53.584;9.968;2024-01-25T07:34:28;17.10;24.20
939;DHT22;456;53.584;9.968;2024-01-25T07:36:54;17.10;24.20
939;DHT22;456;53.584;9.968;2024-01-25T07:39:20;17.10;24.30
939;DHT22;456;53.584;9.968;2024-01-25T07:41:45;17.00;24.10
939;DHT22;456;53.584;9.968;2024-01-25T07:44:11;17.00;24.80
939;DHT22;456;53.584;9.968;2024-01-25T07:46:37;17.00;24.30
939;DHT22;456;53.584;9.968;2024-01-25T07:49:03;17.10;24.30
939;DHT22;456;53.584;9.968;2024-01-25T07:51:28;17.10;24.30
939;DHT22;456;53.584;9.968;2024-01-25T07:53:54;17.00;24.90
939;DHT22;456;53.584;9.968;2024-01-25T07:56:20;17.00;24.30
939;DHT22;456;53.584;9.968;2024-01-25T07:58:48;17.00;24.40
939;DHT22;456;53.584;9.968;2024-01-25T08:01:18;17.00;24.40
939;DHT22;456;53.584;9.968;2024-01-25T08:03:44;17.00;24.40
939;DHT22;456;53.584;9.968;2024-01-25T08:06:10;17.00;24.40
939;DHT22;456;53.584;9.968;2024-01-25T08:08:36;17.00;24.40
939;DHT22;456;53.584;9.968;2024-01-25T08:11:02;17.00;24.40
939;DHT22;456;53.584;9.968;2024-01-25T08:13:29;17.00;24.40
939;DHT22;456;53.584;9.968;2024-01-25T08:15:56;17.00;24.50
939;DHT22;456;53.584;9.968;2024-01-25T08:18:21;16.90;24.40
939;DHT22;456;53.584;9.968;2024-01-25T08:20:49;16.90;24.40
939;DHT22;456;53.584;9.968;2024-01-25T08:23:14;16.90;24.40
939;DHT22;456;53.584;9.968;2024-01-25T08:25:41;17.00;24.60
939;DHT22;456;53.584;9.968;2024-01-25T08:28:06;16.90;24.50
939;DHT22;456;53.584;9.968;2024-01-25T08:30:32;16.90;24.50
939;DHT22;456;53.584;9.968;2024-01-25T08:32:58;16.90;24.60
939;DHT22;456;53.584;9.968;2024-01-25T08:35:24;16.90;24.60
939;DHT22;456;53.584;9.968;2024-01-25T08:37:49;16.90;25.10
939;DHT22;456;53.584;9.968;2024-01-25T08:40:15;16.90;24.50
939;DHT22;456;53.584;9.968;2024-01-25T08:42:41;16.90;24.60
939;DHT22;456;53.584;9.968;2024-01-25T08:45:07;16.90;24.60
939;DHT22;456;53.584;9.968;2024-01-25T08:47:35;16.90;24.60
939;DHT22;456;53.584;9.968;2024-01-25T08:50:01;16.80;24.50
939;DHT22;456;53.584;9.968;2024-01-25T08:52:26;16.90;24.60
939;DHT22;456;53.584;9.968;2024-01-25T08:54:52;16.80;24.60
939;DHT22;456;53.584;9.968;2024-01-25T08:57:18;16.90;24.60
939;DHT22;456;53.584;9.968;2024-01-25T08:59:43;16.80;24.60
939;DHT22;456;53.584;9.968;2024-01-25T09:02:09;16.80;24.70
939;DHT22;456;53.584;9.968;2024-01-25T09:04:35;16.80;24.70
939;DHT22;456;53.584;9.968;2024-01-25T09:07:02;16.80;24.70
939;DHT22;456;53.584;9.968;2024-01-25T09:09:27;16.80;24.70
939;DHT22;456;53.584;9.968;2024-01-25T09:11:53;16.80;24.70
939;DHT22;456;53.584;9.968;2024-01-25T09:14:19;16.80;24.70
939;DHT22;456;53.584;9.968;2024-01-25T09:16:45;16.80;24.70
939;DHT22;456;53.584;9.968;2024-01-25T09:19:10;16.80;24.80
939;DHT22;456;53.584;9.968;2024-01-25T09:21:38;16.80;24.70
939;DHT22;456;53.584;9.968;2024-01-25T09:24:05;16.70;24.70
939;DHT22;456;53.584;9.968;2024-01-25T09:26:31;16.80;24.70
939;DHT22;456;53.584;9.968;2024-01-25T09:28:56;16.70;24.70
939;DHT22;456;53.584;9.968;2024-01-25T09:31:22;16.80;24.70
939;DHT22;456;53.584;9.968;2024-01-25T09:33:47;16.80;24.70
939;DHT22;456;53.584;9.968;2024-01-25T09:36:13;16.70;24.70
939;DHT22;456;53.584;9.968;2024-01-25T09:38:38;16.80;24.80
939;DHT22;456;53.584;9.968;2024-01-25T09:41:04;16.80;24.80
939;DHT22;456;53.584;9.968;2024-01-25T09:43:30;16.80;24.80
939;DHT22;456;53.584;9.968;2024-01-25T09:45:56;16.70;24.80
939;DHT22;456;53.584;9.968;2024-01-25T09:48:22;16.80;24.80
939;DHT22;456;53.584;9.968;2024-01-25T09:50:48;16.70;24.80
939;DHT22;456;53.584;9.968;2024-01-25T09:53:20;16.80;24.80
939;DHT22;456;53.584;9.968;2024-01-25T09:55:53;16.70;24.80
939;DHT22;456;53.584;9.968;2024-01-25T09:58:20;16.70;24.80
939;DHT22;456;53.584;9.968;2024-01-25T10:00:46;16.70;24.80
939;DHT22;456;53.584;9.968;2024-01-25T10:03:12;16.70;24.80
939;DHT22;456;53.584;9.968;2024-01-25T10:05:38;16.70;24.80
939;DHT22;456;53.584;9.968;2024-01-25T10:08:04;16.70;24.80
939;DHT22;456;53.584;9.968;2024-01-25T10:10:37;16.70;24.80
939;DHT22;456;53.584;9.968;2024-01-25T10:13:04;16.70;24.80
939;DHT22;456;53.584;9.968;2024-01-25T10:15:30;16.70;24.80
939;DHT22;456;53.584;9.968;2024-01-25T10:17:56;16.70;24.80
939;DHT22;456;53.584;9.968;2024-01-25T10:20:22;16.70;24.90
939;DHT22;456;53.584;9.968;2024-01-25T10:22:50;16.70;24.80
939;DHT22;456;53.584;9.968;2024-01-25T10:25:17;16.70;24.80
939;DHT22;456;53.584;9.968;2024-01-25T10:27:43;16.70;24.90
939;DHT22;456;53.584;9.968;2024-01-25T10:30:09;16.70;24.80
939;DHT22;456;53.584;9.968;2024-01-25T10:32:36;16.70;24.90
939;DHT22;456;53.584;9.968;2024-01-25T10:35:02;16.70;24.90
939;DHT22;456;53.584;9.968;2024-01-25T10:37:28;16.70;24.90
939;DHT22;456;53.584;9.968;2024-01-25T10:39:55;16.70;25.00
939;DHT22;456;53.584;9.968;2024-01-25T10:42:21;16.70;24.90
939;DHT22;456;53.584;9.968;2024-01-25T10:44:47;16.70;24.90
939;DHT22;456;53.584;9.968;2024-01-25T10:47:12;16.70;24.90
939;DHT22;456;53.584;9.968;2024-01-25T10:49:39;16.70;25.00
939;DHT22;456;53.584;9.968;2024-01-25T10:52:06;16.70;24.80
939;DHT22;456;53.584;9.968;2024-01-25T10:54:32;16.70;24.90
939;DHT22;456;53.584;9.968;2024-01-25T10:56:58;16.70;24.90
939;DHT22;456;53.584;9.968;2024-01-25T10:59:24;16.70;24.90
939;DHT22;456;53.584;9.968;2024-01-25T11:01:51;16.60;24.80
939;DHT22;456;53.584;9.968;2024-01-25T11:04:17;16.70;24.80
939;DHT22;456;53.584;9.968;2024-01-25T11:06:47;16.70;24.90
939;DHT22;456;53.584;9.968;2024-01-25T11:09:19;16.60;24.90
939;DHT22;456;53.584;9.968;2024-01-25T11:11:49;16.60;24.90
939;DHT22;456;53.584;9.968;2024-01-25T11:14:15;16.60;24.90
939;DHT22;456;53.584;9.968;2024-01-25T11:16:43;16.60;24.90
939;DHT22;456;53.584;9.968;2024-01-25T11:19:25;16.60;25.00
939;DHT22;456;53.584;9.968;2024-01-25T11:21:52;16.60;25.10
939;DHT22;456;53.584;9.968;2024-01-25T11:24:22;16.60;25.00
939;DHT22;456;53.584;9.968;2024-01-25T11:26:48;16.60;24.90
939;DHT22;456;53.584;9.968;2024-01-25T11:29:19;16.60;25.00
939;DHT22;456;53.584;9.968;2024-01-25T11:31:47;16.60;25.00
939;DHT22;456;53.584;9.968;2024-01-25T11:34:13;16.60;25.00
939;DHT22;456;53.584;9.968;2024-01-25T11:36:44;16.60;25.00
939;DHT22;456;53.584;9.968;2024-01-25T11:39:11;16.60;25.00
939;DHT22;456;53.584;9.968;2024-01-25T11:41:37;16.60;25.00
939;DHT22;456;53.584;9.968;2024-01-25T11:44:03;16.60;25.00
939;DHT22;456;53.584;9.968;2024-01-25T11:46:29;16.60;25.00
939;DHT22;456;53.584;9.968;2024-01-25T11:48:55;16.60;25.00
939;DHT22;456;53.584;9.968;2024-01-25T11:51:21;16.60;25.10
939;DHT22;456;53.584;9.968;2024-01-25T11:53:46;16.60;25.10
939;DHT22;456;53.584;9.968;2024-01-25T11:56:25;16.60;25.00
939;DHT22;456;53.584;9.968;2024-01-25T11:58:51;16.60;25.00
939;DHT22;456;53.584;9.968;2024-01-25T12:01:17;16.60;25.00
939;DHT22;456;53.584;9.968;2024-01-25T12:03:44;16.50;25.00
939;DHT22;456;53.584;9.968;2024-01-25T12:06:31;16.60;25.00
939;DHT22;456;53.584;9.968;2024-01-25T12:09:08;16.60;25.00
939;DHT22;456;53.584;9.968;2024-01-25T12:11:34;16.60;25.00
939;DHT22;456;53.584;9.968;2024-01-25T12:14:00;16.60;25.00
939;DHT22;456;53.584;9.968;2024-01-25T12:16:25;16.60;25.00
939;DHT22;456;53.584;9.968;2024-01-25T12:18:51;16.60;25.00
939;DHT22;456;53.584;9.968;2024-01-25T12:21:18;16.60;25.00
939;DHT22;456;53.584;9.968;2024-01-25T12:23:43;16.60;24.90
939;DHT22;456;53.584;9.968;2024-01-25T12:26:10;16.60;24.90
939;DHT22;456;53.584;9.968;2024-01-25T12:28:37;16.60;25.00
939;DHT22;456;53.584;9.968;2024-01-25T12:31:04;16.60;25.00
939;DHT22;456;53.584;9.968;2024-01-25T12:33:30;16.60;25.00
939;DHT22;456;53.584;9.968;2024-01-25T12:35:56;16.60;25.10
939;DHT22;456;53.584;9.968;2024-01-25T12:38:23;16.60;25.00
939;DHT22;456;53.584;9.968;2024-01-25T12:40:50;16.60;25.00
939;DHT22;456;53.584;9.968;2024-01-25T12:43:16;16.60;25.00
939;DHT22;456;53.584;9.968;2024-01-25T12:45:42;16.60;25.00
939;DHT22;456;53.584;9.968;2024-01-25T12:48:08;16.60;25.00
939;DHT22;456;53.584;9.968;2024-01-25T12:50:35;16.60;25.00
939;DHT22;456;53.584;9.968;2024-01-25T12:53:01;16.60;25.00
939;DHT22;456;53.584;9.968;2024-01-25T12:55:28;16.60;25.10
939;DHT22;456;53.584;9.968;2024-01-25T12:57:54;16.60;25.00
939;DHT22;456;53.584;9.968;2024-01-25T13:00:21;16.60;25.00
939;DHT22;456;53.584;9.968;2024-01-25T13:02:47;16.60;25.00
939;DHT22;456;53.584;9.968;2024-01-25T13:05:12;16.60;25.00
939;DHT22;456;53.584;9.968;2024-01-25T13:07:38;16.60;25.00
939;DHT22;456;53.584;9.968;2024-01-25T13:10:04;16.60;25.00
939;DHT22;456;53.584;9.968;2024-01-25T13:12:30;16.60;25.00
939;DHT22;456;53.584;9.968;2024-01-25T13:14:55;16.60;25.00
939;DHT22;456;53.584;9.968;2024-01-25T13:17:21;16.50;24.90
939;DHT22;456;53.584;9.968;2024-01-25T13:19:48;16.60;25.00
939;DHT22;456;53.584;9.968;2024-01-25T13:22:14;16.60;25.10
939;DHT22;456;53.584;9.968;2024-01-25T13:24:41;16.60;25.10
939;DHT22;456;53.584;9.968;2024-01-25T13:27:07;16.60;25.10
939;DHT22;456;53.584;9.968;2024-01-25T13:29:32;16.60;25.10
939;DHT22;456;53.584;9.968;2024-01-25T13:31:58;16.50;25.00
939;DHT22;456;53.584;9.968;2024-01-25T13:34:23;16.60;25.10
939;DHT22;456;53.584;9.968;2024-01-25T13:36:49;16.50;25.00
939;DHT22;456;53.584;9.968;2024-01-25T13:39:14;16.60;25.00
939;DHT22;456;53.584;9.968;2024-01-25T13:41:40;16.60;25.10
939;DHT22;456;53.584;9.968;2024-01-25T13:44:05;16.50;25.00
939;DHT22;456;53.584;9.968;2024-01-25T13:46:31;16.50;24.90
939;DHT22;456;53.584;9.968;2024-01-25T13:48:56;16.50;24.90
939;DHT22;456;53.584;9.968;2024-01-25T13:51:22;16.60;25.00
939;DHT22;456;53.584;9.968;2024-01-25T13:53:48;16.50;24.90
939;DHT22;456;53.584;9.968;2024-01-25T13:56:14;16.50;24.90
939;DHT22;456;53.584;9.968;2024-01-25T13:58:40;16.50;25.00
939;DHT22;456;53.584;9.968;2024-01-25T14:01:06;16.50;24.90
939;DHT22;456;53.584;9.968;2024-01-25T14:03:31;16.60;25.00
939;DHT22;456;53.584;9.968;2024-01-25T14:05:57;16.50;24.90
939;DHT22;456;53.584;9.968;2024-01-25T14:08:23;16.50;24.90
939;DHT22;456;53.584;9.968;2024-01-25T14:10:48;16.50;25.00
939;DHT22;456;53.584;9.968;2024-01-25T14:13:14;16.50;24.90
939;DHT22;456;53.584;9.968;2024-01-25T14:15:39;16.50;25.00
939;DHT22;456;53.584;9.968;2024-01-25T14:18:05;16.50;25.00
939;DHT22;456;53.584;9.968;2024-01-25T14:20:31;16.50;25.00
939;DHT22;456;53.584;9.968;2024-01-25T14:22:56;16.50;24.90
939;DHT22;456;53.584;9.968;2024-01-25T14:25:22;16.60;24.70
939;DHT22;456;53.584;9.968;2024-01-25T14:27:47;16.60;24.60
939;DHT22;456;53.584;9.968;2024-01-25T14:30:14;16.70;24.60
939;DHT22;456;53.584;9.968;2024-01-25T14:32:41;16.70;24.50
939;DHT22;456;53.584;9.968;2024-01-25T14:35:06;16.80;24.50
939;DHT22;456;53.584;9.968;2024-01-25T14:37:32;16.80;24.50
939;DHT22;456;53.584;9.968;2024-01-25T14:39:58;16.80;24.40
939;DHT22;456;53.584;9.968;2024-01-25T14:42:23;16.80;24.50
939;DHT22;456;53.584;9.968;2024-01-25T14:44:49;16.90;24.50
939;DHT22;456;53.584;9.968;2024-01-25T14:47:15;16.90;24.50
939;DHT22;456;53.584;9.968;2024-01-25T14:49:46;16.90;24.50
939;DHT22;456;53.584;9.968;2024-01-25T14:52:11;16.90;24.50
939;DHT22;456;53.584;9.968;2024-01-25T14:54:37;16.90;24.50
939;DHT22;456;53.584;9.968;2024-01-25T14:57:02;16.90;24.50
939;DHT22;456;53.584;9.968;2024-01-25T14:59:28;16.90;24.50
939;DHT22;456;53.584;9.968;2024-01-25T15:01:54;16.90;24.40
939;DHT22;456;53.584;9.968;2024-01-25T15:04:19;16.90;24.40
939;DHT22;456;53.584;9.968;2024-01-25T15:06:45;17.00;24.60
939;DHT22;456;53.584;9.968;2024-01-25T15:09:10;17.00;24.60
939;DHT22;456;53.584;9.968;2024-01-25T15:11:36;17.00;24.60
939;DHT22;456;53.584;9.968;2024-01-25T15:14:02;17.00;24.60
939;DHT22;456;53.584;9.968;2024-01-25T15:16:27;17.00;24.50
939;DHT22;456;53.584;9.968;2024-01-25T15:18:56;17.00;24.50
939;DHT22;456;53.584;9.968;2024-01-25T15:21:21;17.10;24.60
939;DHT22;456;53.584;9.968;2024-01-25T15:23:47;17.00;24.60
939;DHT22;456;53.584;9.968;2024-01-25T15:26:13;17.00;24.60
939;DHT22;456;53.584;9.968;2024-01-25T15:28:38;17.00;24.60
939;DHT22;456;53.584;9.968;2024-01-25T15:31:04;17.00;24.60
939;DHT22;456;53.584;9.968;2024-01-25T15:33:30;17.00;24.50
939;DHT22;456;53.584;9.968;2024-01-25T15:35:55;17.00;24.50
939;DHT22;456;53.584;9.968;2024-01-25T15:38:21;17.00;24.60
939;DHT22;456;53.584;9.968;2024-01-25T15:40:46;17.10;24.70
939;DHT22;456;53.584;9.968;2024-01-25T15:43:12;17.10;24.60
939;DHT22;456;53.584;9.968;2024-01-25T15:45:38;17.10;24.60
939;DHT22;456;53.584;9.968;2024-01-25T15:48:04;17.10;24.50
939;DHT22;456;53.584;9.968;2024-01-25T15:50:29;17.10;24.60
939;DHT22;456;53.584;9.968;2024-01-25T15:52:55;17.10;25.10
939;DHT22;456;53.584;9.968;2024-01-25T15:55:24;17.10;24.50
939;DHT22;456;53.584;9.968;2024-01-25T15:57:49;17.10;24.50
939;DHT22;456;53.584;9.968;2024-01-25T16:00:15;17.10;24.50
939;DHT22;456;53.584;9.968;2024-01-25T16:02:41;17.10;24.50
939;DHT22;456;53.584;9.968;2024-01-25T16:05:07;17.10;24.50
939;DHT22;456;53.584;9.968;2024-01-25T16:07:33;17.10;24.50
939;DHT22;456;53.584;9.968;2024-01-25T16:09:58;17.10;24.40
939;DHT22;456;53.584;9.968;2024-01-25T16:12:24;17.10;24.50
939;DHT22;456;53.584;9.968;2024-01-25T16:14:50;17.10;24.40
939;DHT22;456;53.584;9.968;2024-01-25T16:17:21;17.10;24.40
939;DHT22;456;53.584;9.968;2024-01-25T16:19:47;17.10;24.50
939;DHT22;456;53.584;9.968;2024-01-25T16:22:13;17.10;24.50
939;DHT22;456;53.584;9.968;2024-01-25T16:24:39;17.10;24.40
939;DHT22;456;53.584;9.968;2024-01-25T16:27:05;17.20;24.50
939;DHT22;456;53.584;9.968;2024-01-25T16:29:31;17.10;24.50